createdAt,value
2024-03-05T00:00:25.174Z,10.15
2024-03-05T00:03:16.684Z,9.76
2024-03-05T00:05:46.655Z,9.67
2024-03-05T00:08:16.923Z,9.78
2024-03-05T00:10:46.614Z,9.68
2024-03-05T00:13:17.973Z,10.15
2024-03-05T00:15:46.427Z,9.52
2024-03-05T00:18:16.095Z,9.50
2024-03-05T00:20:44.987Z,9.85
2024-03-05T00:23:15.983Z,9.89
2024-03-05T00:25:45.107Z,9.16
2024-03-05T00:28:16.919Z,9.36
2024-03-05T00:30:47.175Z,9.61
2024-03-05T00:33:18.124Z,9.47
2024-03-05T00:35:47.996Z,8.99
2024-03-05T00:38:25.256Z,9.49
2024-03-05T00:41:04.457Z,9.36
2024-03-05T00:43:34.088Z,9.38
2024-03-05T00:46:04.382Z,9.00
2024-03-05T00:48:33.043Z,9.20
2024-03-05T00:51:04.790Z,9.60
2024-03-05T00:53:33.110Z,9.33
2024-03-05T00:56:04.140Z,9.41
2024-03-05T00:58:34.000Z,9.52
2024-03-05T01:01:03.755Z,9.15
2024-03-05T01:03:32.062Z,9.45
2024-03-05T01:06:01.734Z,9.52
2024-03-05T01:08:31.366Z,8.75
2024-03-05T01:11:01.049Z,9.43
2024-03-05T01:13:30.273Z,9.06
2024-03-05T01:16:01.931Z,8.83
2024-03-05T01:18:30.342Z,8.70
2024-03-05T01:20:59.932Z,9.06
2024-03-05T01:23:28.194Z,8.90
2024-03-05T01:25:58.387Z,9.17
2024-03-05T01:28:28.007Z,9.24
2024-03-05T01:31:01.168Z,9.02
2024-03-05T01:33:30.338Z,9.14
2024-03-05T01:36:00.281Z,8.52
2024-03-05T01:38:29.504Z,8.78
2024-03-05T01:41:00.757Z,8.68
2024-03-05T01:43:29.777Z,8.68
2024-03-05T01:46:00.450Z,8.61
2024-03-05T01:48:30.430Z,9.18
2024-03-05T01:51:01.645Z,8.45
2024-03-05T01:53:30.555Z,8.55
2024-03-05T01:56:01.476Z,8.63
2024-03-05T01:58:30.665Z,8.42
2024-03-05T02:01:02.632Z,8.75
2024-03-05T02:03:32.306Z,8.58
2024-03-05T02:06:06.988Z,8.71
2024-03-05T02:08:37.058Z,8.88
2024-03-05T02:11:09.643Z,8.67
2024-03-05T02:13:40.713Z,8.56
2024-03-05T02:16:12.280Z,8.80
2024-03-05T02:18:40.650Z,8.50
2024-03-05T02:21:20.553Z,8.65
2024-03-05T02:23:52.498Z,8.49
2024-03-05T02:26:24.659Z,8.40
2024-03-05T02:28:55.609Z,8.51
2024-03-05T02:31:24.872Z,8.49
2024-03-05T02:33:58.114Z,8.90
2024-03-05T02:36:26.435Z,8.74
2024-03-05T02:38:56.211Z,8.49
2024-03-05T02:41:24.665Z,8.94
2024-03-05T02:43:56.239Z,8.56
2024-03-05T02:46:25.236Z,8.61
2024-03-05T02:48:56.261Z,8.54
2024-03-05T02:51:26.280Z,8.71
2024-03-05T02:53:57.007Z,8.86
2024-03-05T02:56:25.298Z,8.50
2024-03-05T02:58:55.001Z,8.35
2024-03-05T03:01:23.791Z,8.80
2024-03-05T03:03:53.391Z,8.91
2024-03-05T03:06:21.731Z,8.71
2024-03-05T03:08:52.709Z,8.86
2024-03-05T03:11:23.529Z,9.03
2024-03-05T03:13:53.552Z,9.36
2024-03-05T03:16:24.101Z,9.08
2024-03-05T03:18:56.965Z,8.97
2024-03-05T03:21:25.817Z,8.83
2024-03-05T03:23:56.899Z,8.70
2024-03-05T03:26:27.450Z,8.89
2024-03-05T03:28:58.847Z,8.65
2024-03-05T03:31:27.300Z,8.57
2024-03-05T03:33:56.829Z,9.05
2024-03-05T03:36:27.248Z,8.89
2024-03-05T03:38:57.406Z,8.69
2024-03-05T03:41:28.767Z,8.45
2024-03-05T03:43:59.224Z,8.75
2024-03-05T03:46:28.798Z,8.87
2024-03-05T03:48:58.391Z,8.90
2024-03-05T03:51:27.678Z,8.94
2024-03-05T03:53:57.320Z,8.94
2024-03-05T03:56:26.439Z,9.21
2024-03-05T03:58:57.038Z,8.72
2024-03-05T04:01:27.169Z,8.63
2024-03-05T04:03:57.528Z,9.01
2024-03-05T04:06:26.130Z,9.10
2024-03-05T04:08:57.503Z,9.18
2024-03-05T04:11:28.046Z,8.77
2024-03-05T04:14:00.593Z,8.89
2024-03-05T04:16:33.397Z,8.95
2024-03-05T04:19:04.623Z,8.93
2024-03-05T04:21:45.699Z,8.50
2024-03-05T04:24:16.944Z,8.88
2024-03-05T04:26:45.762Z,8.74
2024-03-05T04:29:15.264Z,9.08
2024-03-05T04:31:50.620Z,8.64
2024-03-05T04:34:24.958Z,8.84
2024-03-05T04:36:57.919Z,8.96
2024-03-05T04:39:29.617Z,8.70
2024-03-05T04:42:00.178Z,9.02
2024-03-05T04:44:30.183Z,8.87
2024-03-05T04:46:58.483Z,8.85
2024-03-05T04:49:28.969Z,9.26
2024-03-05T04:51:58.493Z,9.06
2024-03-05T04:54:30.293Z,8.44
2024-03-05T04:56:58.583Z,9.20
2024-03-05T04:59:29.336Z,9.03
2024-03-05T05:01:57.651Z,9.31
2024-03-05T05:04:27.303Z,8.99
2024-03-05T05:06:56.818Z,9.09
2024-03-05T05:09:26.418Z,8.57
2024-03-05T05:11:55.932Z,8.74
2024-03-05T05:14:25.643Z,9.07
2024-03-05T05:16:56.365Z,9.09
2024-03-05T05:19:28.514Z,8.96
2024-03-05T05:21:58.691Z,9.19
2024-03-05T05:24:30.552Z,9.23
2024-03-05T05:26:59.235Z,9.59
2024-03-05T05:29:37.056Z,9.60
2024-03-05T05:32:13.085Z,9.42
2024-03-05T05:34:41.437Z,9.38
2024-03-05T05:37:11.890Z,9.31
2024-03-05T05:39:41.510Z,9.57
2024-03-05T05:42:11.314Z,9.85
2024-03-05T05:44:39.586Z,9.71
2024-03-05T05:47:11.912Z,9.82
2024-03-05T05:49:41.442Z,9.52
2024-03-05T05:52:12.189Z,9.92
2024-03-05T05:54:42.099Z,9.60
2024-03-05T05:57:11.717Z,9.85
2024-03-05T05:59:40.619Z,9.46
2024-03-05T06:02:12.838Z,10.07
2024-03-05T06:04:42.864Z,10.15
2024-03-05T06:07:12.976Z,10.06
2024-03-05T06:09:42.873Z,9.67
2024-03-05T06:12:11.675Z,10.03
2024-03-05T06:14:40.034Z,9.95
2024-03-05T06:17:11.148Z,9.79
2024-03-05T06:19:40.521Z,9.81
2024-03-05T06:22:14.103Z,9.60
2024-03-05T06:24:51.515Z,9.97
2024-03-05T06:27:19.852Z,10.08
2024-03-05T06:29:48.489Z,9.97
2024-03-05T06:32:19.721Z,10.01
2024-03-05T06:34:49.355Z,9.75
2024-03-05T06:37:19.545Z,9.88
2024-03-05T06:39:50.697Z,10.27
2024-03-05T06:42:19.560Z,9.75
2024-03-05T06:44:51.698Z,10.12
2024-03-05T06:47:19.982Z,10.30
2024-03-05T06:49:52.414Z,10.36
2024-03-05T06:52:21.022Z,10.07
2024-03-05T07:07:48.334Z,9.50
2024-03-05T07:10:17.010Z,9.86
2024-03-05T07:12:46.996Z,9.89
2024-03-05T07:15:16.931Z,9.69
2024-03-05T07:17:48.391Z,9.46
2024-03-05T07:20:16.865Z,9.87
2024-03-05T07:22:49.407Z,9.83
2024-03-05T07:25:19.009Z,9.54
2024-03-05T07:27:50.857Z,9.49
2024-03-05T07:30:22.143Z,9.55
2024-03-05T07:32:51.721Z,8.95
2024-03-05T07:35:21.061Z,9.39
2024-03-05T07:37:50.709Z,9.11
2024-03-05T07:40:21.784Z,9.26
2024-03-05T07:42:55.605Z,8.99
2024-03-05T07:45:24.601Z,9.11
2024-03-05T07:47:55.457Z,8.49
2024-03-05T07:50:25.660Z,8.63
2024-03-05T07:52:55.399Z,8.46
2024-03-05T07:55:31.904Z,8.69
2024-03-05T07:58:06.123Z,8.67
2024-03-05T08:00:35.939Z,8.55
2024-03-05T08:03:06.901Z,8.06
2024-03-05T08:05:36.222Z,8.14
2024-03-05T08:08:07.387Z,8.00
2024-03-05T08:10:35.786Z,7.81
2024-03-05T08:13:08.839Z,7.77
2024-03-05T08:15:37.190Z,7.60
2024-03-05T08:18:08.051Z,7.76
2024-03-05T08:20:36.328Z,7.62
2024-03-05T08:23:05.939Z,7.89
2024-03-05T08:25:36.552Z,7.57
2024-03-05T08:28:06.435Z,7.81
2024-03-05T08:30:34.757Z,7.66
2024-03-05T08:33:06.525Z,7.39
2024-03-05T08:35:34.934Z,7.39
2024-03-05T08:38:06.728Z,7.75
2024-03-05T08:40:35.062Z,7.60
2024-03-05T08:43:06.146Z,7.34
2024-03-05T08:45:36.401Z,7.60
2024-03-05T08:48:07.499Z,7.26
2024-03-05T08:50:36.609Z,7.79
2024-03-05T08:53:05.524Z,7.64
2024-03-05T08:55:35.921Z,7.78
2024-03-05T08:58:05.951Z,7.62
2024-03-05T09:00:42.509Z,8.03
2024-03-05T09:03:15.273Z,7.64
2024-03-05T09:05:47.806Z,7.93
2024-03-05T09:08:18.061Z,8.14
2024-03-05T09:10:46.419Z,7.78
2024-03-05T09:13:16.592Z,8.03
2024-03-05T09:15:48.529Z,7.77
2024-03-05T09:18:19.736Z,7.91
2024-03-05T09:20:49.934Z,8.02
2024-03-05T09:23:20.447Z,7.88
2024-03-05T09:25:51.007Z,7.70
2024-03-05T09:28:20.636Z,7.73
2024-03-05T09:30:49.645Z,7.69
2024-03-05T09:33:19.326Z,7.63
2024-03-05T09:35:47.826Z,7.55
2024-03-05T09:38:18.395Z,7.54
2024-03-05T09:40:47.905Z,7.41
2024-03-05T09:43:23.146Z,7.31
2024-03-05T09:46:02.872Z,7.29
2024-03-05T09:48:34.975Z,7.67
2024-03-05T09:51:09.305Z,7.86
2024-03-05T09:53:39.004Z,7.81
2024-03-05T09:56:09.531Z,7.47
2024-03-05T09:58:40.567Z,7.64
2024-03-05T10:01:10.202Z,7.36
2024-03-05T10:03:41.294Z,7.29
2024-03-05T10:06:15.638Z,7.49
2024-03-05T10:08:46.733Z,7.44
2024-03-05T10:11:18.460Z,7.44
2024-03-05T10:13:48.275Z,7.68
2024-03-05T10:16:22.659Z,7.31
2024-03-05T10:18:52.948Z,7.75
2024-03-05T10:21:23.803Z,7.40
2024-03-05T10:24:03.346Z,7.37
2024-03-05T10:26:35.277Z,7.08
2024-03-05T10:29:06.512Z,7.64
2024-03-05T10:31:38.677Z,7.19
2024-03-05T10:34:09.523Z,7.49
2024-03-05T10:36:40.834Z,7.44
2024-03-05T10:39:11.909Z,7.08
2024-03-05T10:41:50.674Z,7.12
2024-03-05T10:44:22.609Z,7.47
2024-03-05T10:46:53.173Z,7.24
2024-03-05T10:49:23.345Z,6.92
2024-03-05T10:51:58.483Z,7.20
2024-03-05T10:54:32.485Z,7.13
2024-03-05T10:57:01.696Z,7.14
2024-03-05T10:59:32.834Z,7.31
2024-03-05T11:02:04.649Z,7.38
2024-03-05T11:04:36.692Z,6.99
2024-03-05T11:07:06.001Z,6.88
2024-03-05T11:09:40.145Z,7.20
2024-03-05T11:12:16.281Z,7.04
2024-03-05T11:14:48.276Z,6.76
2024-03-05T11:17:19.348Z,6.62
2024-03-05T11:19:49.457Z,6.56
2024-03-05T11:22:28.010Z,6.49
2024-03-05T11:25:07.520Z,6.52
2024-03-05T11:27:38.552Z,6.62
2024-03-05T11:30:17.467Z,6.73
2024-03-05T11:32:50.129Z,6.47
2024-03-05T11:35:22.816Z,6.53
2024-03-05T11:37:57.259Z,6.34
2024-03-05T11:40:36.818Z,6.58
2024-03-05T11:43:06.383Z,6.59
2024-03-05T11:45:49.647Z,6.53
2024-03-05T11:48:22.011Z,6.63
2024-03-05T11:50:56.240Z,6.49
2024-03-05T11:53:28.562Z,6.20
2024-03-05T11:56:07.231Z,6.24
2024-03-05T11:58:36.887Z,6.09
2024-03-05T12:01:08.721Z,6.39
2024-03-05T12:03:39.696Z,6.34
2024-03-05T12:06:08.362Z,6.28
2024-03-05T12:08:39.114Z,6.25
2024-03-05T12:11:07.847Z,6.30
2024-03-05T12:13:38.362Z,6.50
2024-03-05T12:16:12.185Z,6.02
2024-03-05T12:18:42.483Z,6.14
2024-03-05T12:21:12.981Z,6.18
2024-03-05T12:23:45.404Z,6.08
2024-03-05T12:26:14.748Z,6.27
2024-03-05T12:28:49.987Z,6.10
2024-03-05T12:31:20.160Z,5.97
2024-03-05T12:33:51.066Z,6.00
2024-03-05T12:36:23.216Z,6.03
2024-03-05T12:38:52.941Z,6.48
2024-03-05T12:41:21.590Z,6.31
2024-03-05T12:43:54.501Z,6.18
2024-03-05T12:46:25.018Z,6.23
2024-03-05T12:49:00.091Z,6.21
2024-03-05T12:51:33.252Z,6.50
2024-03-05T12:54:09.030Z,6.41
2024-03-05T12:56:46.339Z,6.50
2024-03-05T12:59:19.019Z,6.66
2024-03-05T13:01:47.367Z,6.56
2024-03-05T13:04:18.309Z,6.58
2024-03-05T13:06:48.708Z,6.61
2024-03-05T13:09:23.115Z,6.66
2024-03-05T13:11:54.453Z,6.66
2024-03-05T13:14:25.119Z,6.50
2024-03-05T13:16:55.133Z,6.47
2024-03-05T13:19:25.016Z,6.70
2024-03-05T13:21:56.599Z,6.46
2024-03-05T13:24:25.878Z,6.44
2024-03-05T13:26:55.590Z,6.71
2024-03-05T13:29:26.887Z,6.51
2024-03-05T13:31:58.737Z,6.17
2024-03-05T13:34:29.226Z,5.94
2024-03-05T13:36:58.912Z,5.79
2024-03-05T13:39:27.396Z,6.04
2024-03-05T13:41:59.415Z,6.08
2024-03-05T13:44:28.417Z,6.11
2024-03-05T13:47:00.824Z,6.38
2024-03-05T13:49:33.467Z,6.45
2024-03-05T13:52:01.891Z,6.26
2024-03-05T13:54:33.484Z,6.39
2024-03-05T13:57:03.122Z,6.38
2024-03-05T13:59:32.691Z,6.80
2024-03-05T14:02:02.111Z,6.39
2024-03-05T14:04:32.376Z,6.39
2024-03-05T14:07:01.075Z,6.85
2024-03-05T14:09:31.302Z,6.33
2024-03-05T14:11:59.657Z,6.32
2024-03-05T14:14:29.794Z,6.48
2024-03-05T14:16:58.146Z,6.14
2024-03-05T14:19:29.543Z,6.27
2024-03-05T14:21:59.130Z,6.38
2024-03-05T14:24:30.157Z,6.37
2024-03-05T14:26:58.466Z,6.32
2024-03-05T14:29:28.559Z,6.25
2024-03-05T14:31:57.340Z,6.39
2024-03-05T14:34:30.640Z,6.49
2024-03-05T14:37:00.845Z,6.54
2024-03-05T14:39:33.618Z,6.12
2024-03-05T14:42:03.362Z,6.16
2024-03-05T14:44:33.019Z,6.58
2024-03-05T14:47:02.741Z,6.36
2024-03-05T14:49:32.915Z,6.58
2024-03-05T14:52:01.376Z,6.58
2024-03-05T14:54:33.437Z,6.51
2024-03-05T14:57:01.721Z,6.56
2024-03-05T14:59:30.494Z,6.55
2024-03-05T15:01:59.839Z,6.64
2024-03-05T15:04:31.082Z,6.68
2024-03-05T15:06:59.480Z,6.67
2024-03-05T15:09:30.074Z,6.18
2024-03-05T15:11:58.469Z,6.26
2024-03-05T15:14:28.084Z,6.29
2024-03-05T15:16:57.779Z,6.71
2024-03-05T15:19:27.403Z,6.81
2024-03-05T15:21:58.941Z,6.71
2024-03-05T15:24:30.757Z,6.72
2024-03-05T15:27:05.358Z,6.57
2024-03-05T15:29:37.963Z,7.03
2024-03-05T15:32:06.622Z,6.65
2024-03-05T15:34:37.555Z,6.91
2024-03-05T15:37:09.965Z,6.87
2024-03-05T15:39:41.718Z,6.66
2024-03-05T15:42:10.468Z,7.96
2024-03-05T15:44:40.116Z,7.58
2024-03-05T15:47:08.780Z,7.48
2024-03-05T15:49:38.407Z,8.17
2024-03-05T15:52:09.613Z,7.97
2024-03-05T15:54:40.733Z,8.26
2024-03-05T15:57:10.693Z,8.34
2024-03-05T15:59:40.833Z,8.34
2024-03-05T16:02:10.047Z,8.23
2024-03-05T16:05:01.723Z,8.23
2024-03-05T16:07:31.865Z,8.32
2024-03-05T16:10:00.250Z,8.39
2024-03-05T16:12:30.971Z,8.46
2024-03-05T16:14:59.807Z,8.44
2024-03-05T16:17:29.423Z,8.25
2024-03-05T16:19:58.268Z,8.16
2024-03-05T16:22:28.807Z,8.26
2024-03-05T16:24:58.028Z,8.90
2024-03-05T16:27:29.578Z,8.66
2024-03-05T16:29:57.805Z,8.87
2024-03-05T16:32:29.268Z,9.46
2024-03-05T16:34:57.567Z,9.12
2024-03-05T16:37:30.065Z,9.40
2024-03-05T16:40:03.820Z,9.65
2024-03-05T16:42:36.909Z,10.22
2024-03-05T16:45:09.781Z,10.23
2024-03-05T16:47:39.210Z,10.16
2024-03-05T16:50:11.025Z,10.49
2024-03-05T16:52:43.261Z,10.89
2024-03-05T16:55:16.387Z,10.86
2024-03-05T16:57:46.582Z,11.08
2024-03-05T17:00:18.195Z,10.74
2024-03-05T17:02:53.003Z,11.43
2024-03-05T17:05:25.192Z,11.01
2024-03-05T17:07:56.118Z,11.17
2024-03-05T17:10:26.215Z,11.67
2024-03-05T17:12:59.869Z,11.87
2024-03-05T17:15:29.544Z,12.16
2024-03-05T17:18:04.175Z,11.36
2024-03-05T17:20:35.928Z,11.10
2024-03-05T17:23:05.306Z,11.33
2024-03-05T17:25:34.890Z,11.61
2024-03-05T17:28:03.936Z,11.85
2024-03-05T17:30:34.088Z,11.83
2024-03-05T17:33:04.034Z,12.03
2024-03-05T17:35:36.014Z,11.93
2024-03-05T17:38:06.145Z,11.86
2024-03-05T17:40:35.845Z,11.41
2024-03-05T17:43:05.212Z,12.25
2024-03-05T17:45:35.914Z,11.47
2024-03-05T17:48:07.308Z,11.59
2024-03-05T17:50:38.986Z,11.61
2024-03-05T17:53:07.477Z,10.84
2024-03-05T17:55:37.474Z,10.98
2024-03-05T17:58:06.775Z,11.63
2024-03-05T18:00:35.599Z,10.95
2024-03-05T18:03:04.383Z,11.00
2024-03-05T18:05:34.481Z,11.06
2024-03-05T18:08:05.404Z,10.99
2024-03-05T18:10:37.228Z,11.18
2024-03-05T18:13:05.853Z,11.76
2024-03-05T18:15:36.666Z,11.86
2024-03-05T18:18:06.125Z,11.89
2024-03-05T18:20:36.520Z,12.85
2024-03-05T18:23:06.437Z,13.69
2024-03-05T18:25:38.549Z,13.28
2024-03-05T18:28:09.732Z,13.77
2024-03-05T18:30:41.292Z,16.28
2024-03-05T18:33:10.230Z,17.46
2024-03-05T18:35:40.020Z,17.93
2024-03-05T18:40:44.473Z,19.66
2024-03-05T18:43:13.034Z,24.57
2024-03-05T18:45:42.645Z,23.27
2024-03-05T18:48:11.333Z,22.03
2024-03-05T18:50:41.839Z,23.56
2024-03-05T18:53:12.745Z,23.12
2024-03-05T18:55:42.738Z,22.43
2024-03-05T18:58:11.030Z,21.59
2024-03-05T19:00:41.882Z,21.75
2024-03-05T19:03:10.684Z,20.95
2024-03-05T19:05:41.310Z,18.96
2024-03-05T19:08:11.040Z,19.73
2024-03-05T19:10:41.286Z,19.27
2024-03-05T19:13:09.772Z,19.07
2024-03-05T19:15:39.316Z,19.04
2024-03-05T19:18:08.936Z,18.94
2024-03-05T19:20:39.691Z,17.78
2024-03-05T19:23:08.571Z,17.09
2024-03-05T19:25:40.631Z,17.54
2024-03-05T19:28:08.907Z,17.01
2024-03-05T19:30:38.528Z,16.36
2024-03-05T19:33:07.834Z,16.55
2024-03-05T19:35:40.184Z,17.01
2024-03-05T19:38:08.590Z,15.89
2024-03-05T19:40:39.019Z,15.69
2024-03-05T19:43:08.027Z,14.68
2024-03-05T19:45:38.001Z,14.46
2024-03-05T19:48:08.582Z,14.50
2024-03-05T19:50:38.841Z,14.52
2024-03-05T19:53:09.346Z,13.56
2024-03-05T19:55:41.172Z,12.71
2024-03-05T19:58:11.139Z,13.39
2024-03-05T20:00:40.001Z,13.02
2024-03-05T20:03:09.863Z,12.47
2024-03-05T20:05:40.338Z,13.28
2024-03-05T20:08:10.197Z,12.61
2024-03-05T20:10:44.004Z,13.24
2024-03-05T20:13:13.073Z,11.91
2024-03-05T20:15:43.633Z,12.59
2024-03-05T20:18:13.781Z,12.07
2024-03-05T20:20:44.976Z,11.44
2024-03-05T20:23:13.327Z,11.60
2024-03-05T20:25:43.136Z,11.02
2024-03-05T20:28:13.338Z,11.15
2024-03-05T20:30:42.667Z,11.03
2024-03-05T20:33:12.919Z,11.62
2024-03-05T20:35:43.137Z,11.02
2024-03-05T20:38:13.151Z,11.00
2024-03-05T20:40:47.049Z,10.64
2024-03-05T20:43:15.343Z,10.26
2024-03-05T20:45:44.941Z,10.52
2024-03-05T20:48:13.365Z,10.40
2024-03-05T20:50:44.586Z,10.30
2024-03-05T20:53:13.778Z,10.21
2024-03-05T20:55:44.596Z,10.23
2024-03-05T20:58:12.884Z,10.14
2024-03-05T21:00:43.975Z,10.20
2024-03-05T21:03:13.040Z,10.12
2024-03-05T21:05:43.595Z,10.32
2024-03-05T21:08:12.400Z,9.74
2024-03-05T21:10:44.323Z,9.89
2024-03-05T21:13:14.402Z,9.78
2024-03-05T21:15:45.639Z,9.71
2024-03-05T21:18:14.544Z,9.47
2024-03-05T21:20:44.644Z,9.93
2024-03-05T21:23:16.794Z,10.04
2024-03-05T21:26:03.060Z,9.82
2024-03-05T21:28:38.436Z,9.59
2024-03-05T21:31:06.725Z,10.10
2024-03-05T21:33:38.791Z,9.46
2024-03-05T21:36:08.702Z,9.65
2024-03-05T21:38:38.251Z,9.59
2024-03-05T21:41:06.978Z,9.72
2024-03-05T21:43:38.769Z,9.90
2024-03-05T21:46:07.141Z,9.88
2024-03-05T21:48:38.272Z,9.31
2024-03-05T21:51:12.697Z,9.71
2024-03-05T21:53:45.784Z,10.20
2024-03-05T21:56:14.152Z,9.36
2024-03-05T21:58:45.431Z,9.79
2024-03-05T22:01:14.467Z,9.31
2024-03-05T22:03:44.760Z,9.62
2024-03-05T22:06:19.815Z,9.34
2024-03-05T22:08:54.837Z,9.33
2024-03-05T22:11:25.865Z,8.84
2024-03-05T22:13:55.758Z,9.00
2024-03-05T22:16:24.076Z,8.84
2024-03-05T22:18:57.214Z,9.29
2024-03-05T22:21:25.506Z,8.41
2024-03-05T22:23:55.077Z,8.91
2024-03-05T22:26:24.575Z,8.78
2024-03-05T22:28:57.560Z,8.65
2024-03-05T22:31:26.571Z,8.37
2024-03-05T22:33:57.718Z,8.44
2024-03-05T22:36:26.230Z,8.55
2024-03-05T22:38:55.788Z,8.36
2024-03-05T22:41:24.862Z,7.92
2024-03-05T22:43:57.653Z,8.07
2024-03-05T22:46:26.184Z,7.93
2024-03-05T22:48:55.865Z,8.00
2024-03-05T22:51:24.878Z,8.07
2024-03-05T22:53:54.910Z,8.04
2024-03-05T22:56:23.669Z,8.02
2024-03-05T22:58:54.602Z,7.98
2024-03-05T23:01:24.199Z,8.01
2024-03-05T23:03:53.940Z,7.77
2024-03-05T23:06:25.479Z,7.62
2024-03-05T23:08:57.529Z,7.97
2024-03-05T23:11:27.495Z,7.92
2024-03-05T23:13:58.383Z,8.21
2024-03-05T23:16:26.850Z,7.68
2024-03-05T23:18:57.198Z,7.82
2024-03-05T23:21:27.411Z,7.41
2024-03-05T23:23:56.898Z,7.79
2024-03-05T23:26:26.798Z,7.95
2024-03-05T23:28:59.437Z,7.73
2024-03-05T23:31:29.233Z,7.70
2024-03-05T23:33:58.903Z,7.97
2024-03-05T23:36:28.530Z,8.01
2024-03-05T23:38:58.139Z,7.11
2024-03-05T23:41:31.954Z,7.38
2024-03-05T23:44:03.324Z,7.37
2024-03-05T23:46:33.192Z,7.75
2024-03-05T23:49:02.835Z,7.82
2024-03-05T23:51:33.155Z,7.92
2024-03-05T23:54:03.158Z,7.78
2024-03-05T23:56:32.710Z,7.64
2024-03-05T23:59:03.112Z,7.38
